TimeEDT,TemperatureF,Dew PointF,Humidity,Sea Level PressureIn,VisibilityMPH,Wind Direction,Wind SpeedMPH,Gust SpeedMPH,PrecipitationIn,Events,Conditions,WindDirDegrees,DateUTC
12:15 AM,49.5,34.2,56,30.36,10.0,Calm,Calm,-,N/A,,Clear,0,2013-04-27 04:15:00
12:35 AM,50.2,34.3,55,30.36,10.0,Calm,Calm,-,N/A,,Clear,0,2013-04-27 04:35:00
12:55 AM,50.2,34.7,55,30.36,10.0,North,3.5,-,N/A,,Clear,360,2013-04-27 04:55:00
1:15 AM,48.7,34.9,59,30.36,10.0,North,4.6,-,N/A,,Clear,350,2013-04-27 05:15:00
1:35 AM,48.4,34.7,59,30.36,10.0,Calm,Calm,-,N/A,,Clear,0,2013-04-27 05:35:00
1:55 AM,46.9,35.6,65,30.36,10.0,Calm,Calm,-,N/A,,Clear,0,2013-04-27 05:55:00
2:15 AM,46.4,36.0,67,30.35,10.0,NE,3.5,-,N/A,,Clear,40,2013-04-27 06:15:00
2:35 AM,45.7,35.1,66,30.34,10.0,NE,4.6,-,N/A,,Clear,40,2013-04-27 06:35:00
2:55 AM,43.5,35.1,72,30.34,10.0,NE,5.8,-,N/A,,Clear,50,2013-04-27 06:55:00
3:15 AM,43.3,35.4,74,30.34,10.0,NNE,6.9,-,N/A,,Clear,30,2013-04-27 07:15:00
3:35 AM,43.3,33.6,69,30.34,10.0,NE,4.6,-,N/A,,Clear,40,2013-04-27 07:35:00
3:55 AM,45.0,32.9,63,30.33,10.0,Calm,Calm,-,N/A,,Clear,0,2013-04-27 07:55:00
4:15 AM,46.2,32.9,60,30.33,10.0,NNE,4.6,-,N/A,,Clear,20,2013-04-27 08:15:00
4:35 AM,45.3,32.9,62,30.33,10.0,NE,5.8,-,N/A,,Clear,50,2013-04-27 08:35:00
4:55 AM,42.3,33.1,70,30.33,10.0,Calm,Calm,-,N/A,,Clear,0,2013-04-27 08:55:00
5:15 AM,41.2,33.1,73,30.33,10.0,Calm,Calm,-,N/A,,Clear,0,2013-04-27 09:15:00
5:35 AM,40.6,34.0,77,30.33,10.0,Calm,Calm,-,N/A,,Clear,0,2013-04-27 09:35:00
5:55 AM,41.4,33.8,74,30.33,10.0,Calm,Calm,-,N/A,,Clear,0,2013-04-27 09:55:00
6:15 AM,40.6,33.4,75,30.33,10.0,NE,3.5,-,N/A,,Clear,40,2013-04-27 10:15:00
7:35 AM,41.9,35.4,78,30.33,10.0,NE,3.5,-,N/A,,Clear,50,2013-04-27 11:35:00
7:55 AM,44.8,37.0,74,30.33,10.0,NE,3.5,-,N/A,,Clear,50,2013-04-27 11:55:00
8:15 AM,46.8,38.1,72,30.33,10.0,Calm,Calm,-,N/A,,Clear,0,2013-04-27 12:15:00
8:35 AM,48.6,38.1,67,30.33,10.0,NE,3.5,-,N/A,,Clear,40,2013-04-27 12:35:00
8:55 AM,50.4,39.0,65,30.33,10.0,NE,4.6,-,N/A,,Clear,40,2013-04-27 12:55:00
9:15 AM,52.0,39.4,62,30.33,10.0,NNE,4.6,-,N/A,,Clear,30,2013-04-27 13:15:00
9:35 AM,53.8,39.2,58,30.32,10.0,ENE,3.5,-,N/A,,Clear,60,2013-04-27 13:35:00
9:55 AM,55.4,39.2,54,30.32,10.0,ENE,4.6,-,N/A,,Clear,70,2013-04-27 13:55:00
10:15 AM,57.6,37.8,48,30.31,10.0,East,4.6,-,N/A,,Clear,90,2013-04-27 14:15:00
10:35 AM,59.9,35.4,40,30.31,10.0,East,4.6,-,N/A,,Clear,80,2013-04-27 14:35:00
10:55 AM,61.7,33.4,35,30.31,10.0,East,4.6,-,N/A,,Clear,90,2013-04-27 14:55:00
11:15 AM,63.0,32.0,31,30.30,10.0,ESE,4.6,-,N/A,,Clear,110,2013-04-27 15:15:00
11:35 AM,64.0,31.8,30,30.29,10.0,ESE,6.9,-,N/A,,Clear,110,2013-04-27 15:35:00
11:55 AM,64.8,28.9,26,30.28,10.0,East,6.9,18.4,N/A,,Clear,80,2013-04-27 15:55:00
12:15 PM,65.8,26.1,22,30.28,10.0,ESE,9.2,16.1,N/A,,Clear,110,2013-04-27 16:15:00
12:35 PM,66.6,30.0,26,30.28,10.0,SSE,5.8,-,N/A,,Clear,150,2013-04-27 16:35:00
12:55 PM,67.3,27.7,23,30.27,10.0,SSE,10.4,-,N/A,,Clear,150,2013-04-27 16:55:00
1:15 PM,68.0,24.8,20,30.25,10.0,East,9.2,18.4,N/A,,Clear,100,2013-04-27 17:15:00
1:35 PM,68.7,28.4,22,30.26,10.0,SE,8.1,-,N/A,,Clear,140,2013-04-27 17:35:00
1:55 PM,69.1,27.5,21,30.26,10.0,SSE,4.6,-,N/A,,Clear,160,2013-04-27 17:55:00
2:15 PM,69.6,27.9,21,30.25,10.0,ESE,6.9,-,N/A,,Clear,120,2013-04-27 18:15:00
2:35 PM,70.2,25.9,19,30.24,10.0,South,11.5,23.0,N/A,,Clear,180,2013-04-27 18:35:00
2:55 PM,70.5,25.5,19,30.23,10.0,SSE,9.2,-,N/A,,Clear,150,2013-04-27 18:55:00
3:15 PM,71.2,25.9,18,30.21,10.0,South,9.2,-,N/A,,Clear,180,2013-04-27 19:15:00
3:35 PM,71.4,25.2,18,30.21,10.0,South,4.6,-,N/A,,Clear,190,2013-04-27 19:35:00
3:55 PM,71.6,26.1,18,30.19,10.0,South,11.5,17.3,N/A,,Clear,180,2013-04-27 19:55:00
4:15 PM,71.6,26.4,19,30.18,10.0,Calm,Calm,-,N/A,,Clear,0,2013-04-27 20:15:00
4:35 PM,71.4,25.0,18,30.17,10.0,Calm,Calm,-,N/A,,Clear,0,2013-04-27 20:35:00
4:55 PM,72.1,26.2,18,30.16,10.0,South,10.4,-,N/A,,Clear,180,2013-04-27 20:55:00
5:15 PM,72.3,28.2,19,30.15,10.0,South,8.1,-,N/A,,Clear,190,2013-04-27 21:15:00
5:35 PM,71.6,28.2,20,30.15,10.0,SSE,6.9,-,N/A,,Clear,160,2013-04-27 21:35:00
5:55 PM,70.9,30.6,22,30.16,10.0,SSW,12.7,-,N/A,,Scattered Clouds,200,2013-04-27 21:55:00
6:15 PM,69.8,31.5,24,30.16,10.0,SSW,15.0,-,N/A,,Mostly Cloudy,200,2013-04-27 22:15:00
6:35 PM,69.1,32.5,26,30.16,10.0,SSW,10.4,-,N/A,,Overcast,200,2013-04-27 22:35:00
6:55 PM,68.4,35.1,29,30.15,10.0,SSW,8.1,-,N/A,,Overcast,200,2013-04-27 22:55:00
7:15 PM,67.8,37.0,32,30.15,10.0,South,9.2,-,N/A,,Overcast,190,2013-04-27 23:15:00
7:35 PM,67.1,37.4,34,30.15,10.0,South,8.1,-,N/A,,Overcast,190,2013-04-27 23:35:00
7:55 PM,66.4,37.6,35,30.14,10.0,South,5.8,-,N/A,,Overcast,180,2013-04-27 23:55:00
8:15 PM,65.5,39.0,38,30.14,10.0,South,5.8,-,N/A,,Overcast,190,2013-04-28 00:15:00
8:35 PM,64.8,40.5,41,30.14,10.0,SSW,6.9,-,N/A,,Overcast,210,2013-04-28 00:35:00
8:55 PM,64.0,41.0,43,30.14,10.0,SSW,6.9,-,N/A,,Overcast,210,2013-04-28 00:55:00
9:15 PM,63.3,41.7,45,30.14,10.0,SSW,4.6,-,N/A,,Overcast,210,2013-04-28 01:15:00
9:35 PM,62.2,43.7,51,30.14,10.0,South,3.5,-,N/A,,Overcast,180,2013-04-28 01:35:00
9:55 PM,61.3,43.2,51,30.14,10.0,South,9.2,-,N/A,,Scattered Clouds,180,2013-04-28 01:55:00
10:15 PM,62.1,42.3,48,30.14,10.0,South,8.1,-,N/A,,Mostly Cloudy,180,2013-04-28 02:15:00
10:35 PM,61.7,43.3,51,30.13,10.0,SSE,8.1,-,N/A,,Overcast,160,2013-04-28 02:35:00
10:55 PM,60.8,43.7,53,30.12,10.0,SSE,5.8,-,N/A,,Overcast,160,2013-04-28 02:55:00
11:15 PM,59.9,43.9,55,30.11,10.0,ESE,4.6,-,N/A,,Overcast,120,2013-04-28 03:15:00
11:35 PM,58.6,43.9,58,30.10,10.0,ESE,5.8,-,N/A,,Scattered Clouds,120,2013-04-28 03:35:00
11:55 PM,58.5,43.9,58,30.10,10.0,SE,5.8,-,N/A,,Scattered Clouds,140,2013-04-28 03:55:00